カラカス の空港の天気 - METARとTAF

シモン・ボリバー空港(バルガス) ( SVMI / CCS ) - ベネズエラ バルガス州、Maiquetia (カラカス近郊)
飛行場実況気象(Metar)
観測時間07/02 08:02 VET (07/02 12:02 UTC)
風向・風速西 3m/s
視程-
天気現象
なし
気温-
湿度-
気圧1013hPa
METARSVMI 021202Z AUTO 27006KT NCD ///// Q1013
過去の天気等 Google飛行場航空写真 Wunderground天気予報

過去48時間のMETAR

飛行場予報(TAF)
発表時間: 7/02 06:00 VET (7/02 10:00 UTC)
予報対象時間: 2日8時 VET ~ 3日8時 VET
風向・風速静穏
視程10km以上
少しの雲 雲底高度 490m
2日12時 VET ~ 2日18時 VET に徐々に
風向・風速東 4m/s
全天の4割程度の雲 雲底高度 490m
2日19時 VET から
風向・風速東北東 2m/s
視程10km以上
少しの雲 雲底高度 490m
TAF SVMI 021000Z 0212/0312 00000KT 9999 FEW016 TX33/18Z TN22/07Z
BECMG 0216/0222 09008KT SCT016
FM022300 07004KT 9999 FEW016